Nearby METAR Reports

 

K6B9 - Skaneateles, New York, USA
Distance from station: SE 7mi, 12km
Updated: Sun, 28-Nov-2021 11:55am EST
Light snow, Overcast
Light snow, Overcast
 Wind from calm
Wind: Calm
Temperature: 32°F , 0°C
Dew Point: 30°F , -1°C
Humidity: 93%
Barometer: 29.74 inHg , 1007.1 hPa
Summary: Light Snow
Clouds: Overcast
Visibility: 10 miles , 16 km
Cloud details: Overcast 1700 ft
2021/11/28 16:55 K6B9 281655Z AUTO 00000KT 10SM -SN OVC017 M00/M01 A2974 RMK AO2
KSYR - Syracuse, New York, USA
Distance from station: ENE 24mi, 38km
Updated: Sun, 28-Nov-2021 11:54am EST
Light snow, Overcast
Light snow, Overcast
 Wind from E
Wind: E 6 mph , 9 km/h
Temperature: 34°F , 1°C
Wind Chill: 29°F , -2°C
Dew Point: 30°F , -1°C
Humidity: 87%
Barometer: 29.79 inHg , 1008.8 hPa
Summary: Light Snow
Clouds: Overcast
Visibility: 8 miles , 13 km
Cloud details: Few Clouds 1100 ft
Few Clouds 4400 ft
Overcast 5500 ft
2021/11/28 16:54 KSYR 281654Z 09005KT 8SM -SN FEW011 FEW044 OVC055 01/M01 A2979 RMK AO2 SLP087 P0000 T00061006
 
KFZY - Fulton, New York, USA
Distance from station: NNE 26mi, 41km
Updated: Sun, 28-Nov-2021 11:54am EST
Overcast
Overcast
 Wind from calm
Wind: Calm
Temperature: 32°F , 0°C
Dew Point: 27°F , -3°C
Humidity: 80%
Barometer: 29.78 inHg , 1008.5 hPa
Clouds: Overcast
Visibility: 8 miles , 13 km
Cloud details: Few Clouds 1000 ft
Overcast 6000 ft
2021/11/28 16:54 KFZY 281654Z AUTO 00000KT 8SM FEW010 OVC060 00/M03 A2978 RMK AO2 SLP089 T00001028
KN03 - Cortland, New York, USA
Distance from station: SSE 32mi, 51km
Updated: Sun, 28-Nov-2021 11:55am EST
Light snow, Overcast
Light snow, Overcast
 Wind from calm
Wind: Calm
Temperature: 30°F , -1°C
Dew Point: 27°F , -3°C
Humidity: 86%
Barometer: 29.75 inHg , 1007.5 hPa
Summary: Light Snow
Clouds: Overcast
Visibility: 7 miles , 11 km
Cloud details: Overcast 1100 ft
2021/11/28 16:55 KN03 281655Z AUTO 00000KT 7SM -SN OVC011 M01/M03 A2975 RMK AO2
 
KSDC - Williamson/Sodus, New York, USA
Distance from station: WNW 34mi, 54km
Updated: Sun, 28-Nov-2021 12:15pm EST
Light snow, Overcast
Light snow, Overcast
 Wind from ESE
Wind: ESE 3 mph , 6 km/h
Temperature: 32°F , 0°C
Dew Point: 30°F , -1°C
Humidity: 93%
Barometer: 29.77 inHg , 1008.1 hPa
Summary: Light Snow
Clouds: Overcast
Visibility: 10 miles , 16 km
Cloud details: Mostly cloudy 1000 ft
Overcast 1400 ft
2021/11/28 17:15 KSDC 281715Z AUTO 12003KT 10SM -SN BKN010 OVC014 00/M01 A2977 RMK AO2
KPEO - Penn Yan, New York, USA
Distance from station: SW 35mi, 57km
Updated: Sun, 28-Nov-2021 11:53am EST
Light snow, Overcast
Light snow, Overcast
 Wind from SSW
Wind: SSW 6 mph , 9 km/h
Temperature: 30°F , -1°C
Wind Chill: 24°F , -4°C
Dew Point: 27°F , -3°C
Humidity: 86%
Barometer: 29.74 inHg , 1007.1 hPa
Summary: Light Snow
Clouds: Overcast
Visibility: 9 miles , 14 km
Cloud details: Few Clouds 900 ft
Overcast 4000 ft
2021/11/28 16:53 KPEO 281653Z AUTO 20005KT 9SM -SN FEW009 OVC040 M01/M03 A2974 RMK AO2 UPB08E49SNB1557E08B53 SLP081 P0000 T10061028
 
KITH - Ithaca/Tompkins, New York, USA
Distance from station: S 37mi, 59km
Updated: Sun, 28-Nov-2021 11:56am EST
Light snow, Overcast
Light snow, Overcast
 Wind from SSE
Wind: SSE 6 mph , 9 km/h
Temperature: 30°F , -1°C
Wind Chill: 24°F , -4°C
Dew Point: 27°F , -3°C
Humidity: 86%
Barometer: 29.75 inHg , 1007.5 hPa
Summary: Light Snow
Clouds: Overcast
Visibility: 7 miles , 11 km
Cloud details: Overcast 1000 ft
2021/11/28 16:56 KITH 281656Z 16005KT 7SM -SN OVC010 M01/M03 A2975 RMK AO2 UPB1559E00SNE1559B01 SLP086 P0000 T10111028
KVGC - Hamilton Municip, New York, USA
Distance from station: E 50mi, 80km
Updated: Sun, 28-Nov-2021 11:55am EST
Overcast
Overcast
 Wind from S
Wind: S 6 mph , 9 km/h
Temperature: 30°F , -1°C
Wind Chill: 24°F , -4°C
Dew Point: 27°F , -3°C
Humidity: 86%
Barometer: 29.75 inHg , 1007.5 hPa
Clouds: Overcast
Visibility: 5 miles , 8 km
Cloud details: Partly cloudy 1300 ft
Partly cloudy 3500 ft
Overcast 4100 ft
2021/11/28 16:55 KVGC 281655Z AUTO 18005KT 5SM SCT013 SCT035 OVC041 M01/M03 A2975 RMK AO2